createdAt,value
2018-12-29T00:00:43.081Z,-68
2018-12-29T00:03:16.043Z,-69
2018-12-29T00:05:48.633Z,-68
2018-12-29T00:08:20.450Z,-68
2018-12-29T00:10:52.359Z,-69
2018-12-29T00:13:24.217Z,-69
2018-12-29T00:15:56.217Z,-69
2018-12-29T00:18:28.367Z,-68
2018-12-29T00:21:00.369Z,-68
2018-12-29T00:23:32.304Z,-70
2018-12-29T00:26:04.301Z,-68
2018-12-29T00:28:35.981Z,-68
2018-12-29T00:31:07.782Z,-68
2018-12-29T00:33:41.542Z,-70
2018-12-29T00:36:13.503Z,-69
2018-12-29T00:38:44.850Z,-69
2018-12-29T00:41:17.834Z,-69
2018-12-29T00:43:50.264Z,-69
2018-12-29T00:46:22.605Z,-69
2018-12-29T00:48:54.409Z,-69
2018-12-29T00:51:26.303Z,-70
2018-12-29T00:53:58.270Z,-69
2018-12-29T00:56:30.342Z,-70
2018-12-29T00:59:02.372Z,-69
2018-12-29T01:01:34.773Z,-69
2018-12-29T01:04:06.790Z,-68
2018-12-29T01:06:38.410Z,-68
2018-12-29T01:09:11.286Z,-68
2018-12-29T01:11:43.316Z,-69
2018-12-29T01:14:15.467Z,-68
2018-12-29T01:16:47.808Z,-69
2018-12-29T01:19:19.830Z,-69
2018-12-29T01:21:51.811Z,-69
2018-12-29T01:24:23.422Z,-68
2018-12-29T01:26:55.391Z,-69
2018-12-29T01:29:27.388Z,-70
2018-12-29T01:31:59.613Z,-67
2018-12-29T01:34:31.414Z,-69
2018-12-29T01:37:03.492Z,-69
2018-12-29T01:39:36.351Z,-69
2018-12-29T01:42:08.308Z,-68
2018-12-29T01:44:40.059Z,-68
2018-12-29T01:47:11.894Z,-68
2018-12-29T01:49:45.730Z,-69
2018-12-29T01:52:18.952Z,-68
2018-12-29T01:54:50.692Z,-69
2018-12-29T01:57:22.265Z,-69
2018-12-29T01:59:54.043Z,-68
2018-12-29T02:02:25.767Z,-69
2018-12-29T02:04:57.767Z,-70
2018-12-29T02:07:29.259Z,-70
2018-12-29T02:10:00.811Z,-69
2018-12-29T02:12:32.813Z,-70
2018-12-29T02:15:05.305Z,-70
2018-12-29T02:17:37.203Z,-69
2018-12-29T02:20:09.439Z,-68
2018-12-29T02:22:41.757Z,-68
2018-12-29T02:25:14.324Z,-68
2018-12-29T02:27:47.066Z,-68
2018-12-29T02:30:19.302Z,-70
2018-12-29T02:32:51.790Z,-68
2018-12-29T02:35:22.637Z,-68
2018-12-29T02:37:54.576Z,-69
2018-12-29T02:40:25.729Z,-69
2018-12-29T02:42:56.466Z,-70
2018-12-29T02:45:32.968Z,-69
2018-12-29T02:48:01.731Z,-68
2018-12-29T02:50:32.495Z,-68
2018-12-29T02:53:05.311Z,-69
2018-12-29T02:55:37.306Z,-69
2018-12-29T02:58:09.307Z,-68
2018-12-29T03:00:41.016Z,-69
2018-12-29T03:03:13.421Z,-69
2018-12-29T03:05:45.800Z,-69
2018-12-29T03:08:17.953Z,-69
2018-12-29T03:10:50.064Z,-69
2018-12-29T03:13:21.792Z,-68
2018-12-29T03:15:53.789Z,-68
2018-12-29T03:18:25.391Z,-68
2018-12-29T03:20:57.752Z,-70
2018-12-29T03:23:28.464Z,-69
2018-12-29T03:26:00.328Z,-68
2018-12-29T03:28:32.454Z,-69
2018-12-29T03:31:04.353Z,-69
2018-12-29T03:33:36.639Z,-68
2018-12-29T03:36:08.065Z,-69
2018-12-29T03:38:39.793Z,-70
2018-12-29T03:41:15.305Z,-69
2018-12-29T03:43:46.989Z,-68
2018-12-29T03:46:18.768Z,-69
2018-12-29T03:48:49.521Z,-70
2018-12-29T03:51:21.782Z,-68
2018-12-29T03:53:52.507Z,-70
2018-12-29T03:56:24.567Z,-69
2018-12-29T03:58:56.777Z,-70
2018-12-29T04:01:27.522Z,-69
2018-12-29T04:03:59.692Z,-69
2018-12-29T04:06:30.517Z,-70
2018-12-29T04:09:39.896Z,-69
2018-12-29T04:12:20.486Z,-67
2018-12-29T04:14:52.640Z,-68
2018-12-29T04:17:24.442Z,-68
2018-12-29T04:20:49.780Z,-68
2018-12-29T04:23:20.489Z,-67
2018-12-29T04:25:52.298Z,-68
2018-12-29T04:28:23.979Z,-68
2018-12-29T04:30:55.807Z,-67
2018-12-29T04:33:27.814Z,-68
2018-12-29T04:35:59.796Z,-68
2018-12-29T04:38:30.669Z,-68
2018-12-29T04:41:01.335Z,-68
2018-12-29T04:43:32.716Z,-68
2018-12-29T04:46:05.387Z,-68
2018-12-29T04:48:37.835Z,-68
2018-12-29T04:51:09.791Z,-68
2018-12-29T04:53:42.504Z,-69
2018-12-29T04:56:14.817Z,-67
2018-12-29T04:58:46.814Z,-69
2018-12-29T05:01:19.321Z,-68
2018-12-29T05:03:51.315Z,-68
2018-12-29T05:06:23.278Z,-68
2018-12-29T05:08:55.314Z,-67
2018-12-29T05:11:27.478Z,-68
2018-12-29T05:13:59.532Z,-68
2018-12-29T05:16:31.812Z,-67
2018-12-29T05:19:03.814Z,-68
2018-12-29T05:21:36.363Z,-67
2018-12-29T05:24:08.528Z,-69
2018-12-29T05:26:41.496Z,-67
2018-12-29T05:29:13.862Z,-68
2018-12-29T05:31:46.546Z,-67
2018-12-29T05:34:19.031Z,-67
2018-12-29T05:36:51.375Z,-67
2018-12-29T05:39:23.833Z,-69
2018-12-29T05:41:56.315Z,-69
2018-12-29T05:44:28.988Z,-67
2018-12-29T05:47:01.708Z,-67
2018-12-29T05:49:32.859Z,-67
2018-12-29T05:52:05.321Z,-67
2018-12-29T05:54:37.812Z,-67
2018-12-29T05:57:09.776Z,-68
2018-12-29T05:59:41.841Z,-68
2018-12-29T06:02:13.810Z,-69
2018-12-29T06:04:45.794Z,-69
2018-12-29T06:07:17.843Z,-69
2018-12-29T06:09:49.847Z,-69
2018-12-29T06:12:22.313Z,-70
2018-12-29T06:14:54.483Z,-69
2018-12-29T06:17:26.665Z,-69
2018-12-29T06:19:58.567Z,-70
2018-12-29T06:22:30.791Z,-69
2018-12-29T06:25:02.817Z,-70
2018-12-29T06:27:34.803Z,-69
2018-12-29T06:30:06.794Z,-69
2018-12-29T06:32:38.804Z,-70
2018-12-29T06:35:11.140Z,-69
2018-12-29T06:37:42.741Z,-69
2018-12-29T06:40:14.434Z,-69
2018-12-29T06:42:46.315Z,-69
2018-12-29T06:45:18.429Z,-69
2018-12-29T06:47:50.613Z,-69
2018-12-29T06:50:22.639Z,-70
2018-12-29T06:52:54.352Z,-70
2018-12-29T06:55:26.352Z,-69
2018-12-29T06:57:58.313Z,-70
2018-12-29T07:00:30.439Z,-69
2018-12-29T07:03:02.275Z,-69
2018-12-29T07:05:34.271Z,-69
2018-12-29T07:08:06.092Z,-68
2018-12-29T07:10:38.362Z,-69
2018-12-29T07:13:10.074Z,-70
2018-12-29T07:15:41.835Z,-70
2018-12-29T07:18:13.630Z,-69
2018-12-29T07:20:45.438Z,-68
2018-12-29T07:23:17.847Z,-69
2018-12-29T07:25:49.816Z,-69
2018-12-29T07:28:21.855Z,-70
2018-12-29T07:30:53.746Z,-69
2018-12-29T07:33:25.850Z,-70
2018-12-29T07:35:57.447Z,-70
2018-12-29T07:38:29.313Z,-70
2018-12-29T07:41:01.287Z,-69
2018-12-29T07:43:33.382Z,-70
2018-12-29T07:46:05.386Z,-69
2018-12-29T07:48:37.771Z,-70
2018-12-29T07:51:08.495Z,-72
2018-12-29T07:53:40.711Z,-70
2018-12-29T07:56:11.657Z,-70
2018-12-29T07:58:43.459Z,-69
2018-12-29T08:01:15.762Z,-70
2018-12-29T08:03:46.648Z,-69
2018-12-29T08:06:17.968Z,-70
2018-12-29T08:08:49.783Z,-69
2018-12-29T08:11:21.783Z,-70
2018-12-29T08:13:52.790Z,-69
2018-12-29T08:16:24.423Z,-71
2018-12-29T08:18:56.319Z,-68
2018-12-29T08:21:27.911Z,-69
2018-12-29T08:23:59.755Z,-70
2018-12-29T08:26:31.541Z,-70
2018-12-29T08:29:03.314Z,-71
2018-12-29T08:31:35.053Z,-69
2018-12-29T08:34:07.074Z,-69
2018-12-29T08:36:38.890Z,-70
2018-12-29T08:39:10.810Z,-71
2018-12-29T08:41:42.924Z,-71
2018-12-29T08:44:14.787Z,-70
2018-12-29T08:46:46.743Z,-69
2018-12-29T08:49:17.551Z,-69
2018-12-29T08:51:49.416Z,-71
2018-12-29T08:54:21.302Z,-70
2018-12-29T08:56:53.306Z,-71
2018-12-29T08:59:25.019Z,-69
2018-12-29T09:01:56.825Z,-70
2018-12-29T09:04:28.626Z,-70
2018-12-29T09:07:00.496Z,-70
2018-12-29T09:09:32.416Z,-71
2018-12-29T09:12:04.277Z,-69
2018-12-29T09:14:36.781Z,-71
2018-12-29T09:17:12.162Z,-70
2018-12-29T09:19:42.471Z,-69
2018-12-29T09:22:14.430Z,-71
2018-12-29T09:24:46.402Z,-70
2018-12-29T09:27:18.651Z,-71
2018-12-29T09:29:51.297Z,-70
2018-12-29T09:32:23.782Z,-69
2018-12-29T09:34:55.422Z,-70
2018-12-29T09:37:27.068Z,-69
2018-12-29T09:39:58.782Z,-70
2018-12-29T09:42:29.519Z,-70
2018-12-29T09:45:01.417Z,-70
2018-12-29T09:47:33.312Z,-71
2018-12-29T09:50:05.117Z,-69
2018-12-29T09:52:36.816Z,-68
2018-12-29T09:55:08.755Z,-69
2018-12-29T09:57:39.490Z,-69
2018-12-29T10:00:11.394Z,-69
2018-12-29T10:02:43.309Z,-69
2018-12-29T10:05:16.054Z,-68
2018-12-29T10:07:47.864Z,-68
2018-12-29T10:10:19.743Z,-69
2018-12-29T10:12:51.725Z,-68
2018-12-29T10:15:22.493Z,-69
2018-12-29T10:17:54.402Z,-68
2018-12-29T10:20:26.073Z,-69
2018-12-29T10:22:58.047Z,-68
2018-12-29T10:25:30.003Z,-69
2018-12-29T10:28:01.812Z,-69
2018-12-29T10:30:33.770Z,-69
2018-12-29T10:33:04.597Z,-69
2018-12-29T10:35:36.354Z,-69
2018-12-29T10:38:08.303Z,-69
2018-12-29T10:40:40.418Z,-69
2018-12-29T10:43:12.310Z,-70
2018-12-29T10:45:44.231Z,-70
2018-12-29T10:48:15.874Z,-68
2018-12-29T10:50:47.813Z,-69
2018-12-29T10:53:19.741Z,-68
2018-12-29T10:55:50.662Z,-68
2018-12-29T10:58:22.788Z,-68
2018-12-29T11:00:54.741Z,-69
2018-12-29T11:03:25.498Z,-69
2018-12-29T11:05:57.718Z,-69
2018-12-29T11:08:29.790Z,-68
2018-12-29T11:11:00.574Z,-68
2018-12-29T11:13:32.239Z,-69
2018-12-29T11:16:03.622Z,-69
2018-12-29T11:18:35.605Z,-69
2018-12-29T11:21:07.371Z,-69
2018-12-29T11:23:39.135Z,-69
2018-12-29T11:26:10.726Z,-69
2018-12-29T11:28:41.648Z,-70
2018-12-29T11:31:13.656Z,-68
2018-12-29T11:33:45.432Z,-68
2018-12-29T11:36:16.661Z,-69
2018-12-29T11:38:47.609Z,-70
2018-12-29T11:41:19.386Z,-70
2018-12-29T11:43:51.375Z,-69
2018-12-29T11:46:23.439Z,-68
2018-12-29T11:48:55.307Z,-69
2018-12-29T11:51:27.317Z,-69
2018-12-29T11:53:59.325Z,-69
2018-12-29T11:56:31.397Z,-69
2018-12-29T11:59:03.603Z,-68
2018-12-29T12:01:34.604Z,-69
2018-12-29T12:04:06.371Z,-68
2018-12-29T12:06:38.381Z,-68
2018-12-29T12:09:10.476Z,-69
2018-12-29T12:11:42.266Z,-69
2018-12-29T12:14:14.307Z,-69
2018-12-29T12:16:46.635Z,-68
2018-12-29T12:19:17.480Z,-69
2018-12-29T12:21:49.236Z,-69
2018-12-29T12:24:21.282Z,-69
2018-12-29T12:26:53.302Z,-70
2018-12-29T12:29:24.904Z,-69
2018-12-29T12:31:56.833Z,-69
2018-12-29T12:34:28.805Z,-71
2018-12-29T12:37:00.777Z,-69
2018-12-29T12:39:32.868Z,-70
2018-12-29T12:42:05.248Z,-73
2018-12-29T12:44:36.991Z,-69
2018-12-29T12:47:08.749Z,-69
2018-12-29T12:49:40.738Z,-68
2018-12-29T12:52:12.625Z,-70
2018-12-29T12:54:44.578Z,-71
2018-12-29T12:57:18.647Z,-72
2018-12-29T12:59:50.691Z,-70
2018-12-29T13:02:21.866Z,-72
2018-12-29T13:04:53.791Z,-72
2018-12-29T13:07:25.374Z,-72
2018-12-29T13:09:57.350Z,-72
2018-12-29T13:12:29.541Z,-72
2018-12-29T13:15:01.608Z,-72
2018-12-29T13:17:33.259Z,-71
2018-12-29T13:20:05.155Z,-72
2018-12-29T13:22:37.326Z,-73
2018-12-29T13:25:09.229Z,-72
2018-12-29T13:27:40.814Z,-72
2018-12-29T13:30:12.784Z,-71
2018-12-29T13:32:44.567Z,-71
2018-12-29T13:35:15.459Z,-71
2018-12-29T13:37:47.770Z,-71
2018-12-29T13:40:19.434Z,-71
2018-12-29T13:42:52.305Z,-71
2018-12-29T13:45:23.973Z,-70
2018-12-29T13:47:55.828Z,-72
2018-12-29T13:50:27.809Z,-71
2018-12-29T13:53:00.294Z,-72
2018-12-29T13:55:32.324Z,-72
2018-12-29T13:58:04.790Z,-72
2018-12-29T14:00:36.775Z,-72
2018-12-29T14:03:08.723Z,-69
2018-12-29T14:05:40.474Z,-70
2018-12-29T14:08:12.998Z,-70
2018-12-29T14:10:44.774Z,-70
2018-12-29T14:13:17.309Z,-69
2018-12-29T14:15:49.986Z,-68
2018-12-29T14:18:28.154Z,-68
2018-12-29T14:20:55.791Z,-70
2018-12-29T14:23:27.825Z,-69
2018-12-29T14:25:59.702Z,-69
2018-12-29T14:28:30.489Z,-70
2018-12-29T14:31:02.558Z,-72
2018-12-29T14:33:34.880Z,-74
2018-12-29T14:36:06.758Z,-75
2018-12-29T14:38:38.897Z,-73
2018-12-29T14:41:11.068Z,-72
2018-12-29T14:43:45.312Z,-71
2018-12-29T14:46:17.357Z,-72
2018-12-29T14:48:49.263Z,-71
2018-12-29T14:51:21.346Z,-69
2018-12-29T14:53:53.311Z,-75
2018-12-29T14:56:25.371Z,-70
2018-12-29T14:58:57.308Z,-70
2018-12-29T15:01:29.407Z,-71
2018-12-29T15:04:01.412Z,-72
2018-12-29T15:06:33.373Z,-70
2018-12-29T15:09:06.806Z,-72
2018-12-29T15:11:38.745Z,-72
2018-12-29T15:14:09.676Z,-72
2018-12-29T15:16:41.764Z,-72
2018-12-29T15:19:13.747Z,-72
2018-12-29T15:21:44.467Z,-73
2018-12-29T15:24:16.448Z,-72
2018-12-29T15:26:48.669Z,-72
2018-12-29T15:29:21.303Z,-70
2018-12-29T15:31:53.313Z,-70
2018-12-29T15:34:25.416Z,-71
2018-12-29T15:36:57.749Z,-70
2018-12-29T15:39:33.481Z,-72
2018-12-29T15:42:05.311Z,-71
2018-12-29T15:44:37.301Z,-70
2018-12-29T15:47:08.636Z,-70
2018-12-29T15:49:40.418Z,-73
2018-12-29T15:52:12.751Z,-70
2018-12-29T15:54:44.910Z,-70
2018-12-29T15:57:16.796Z,-70
2018-12-29T15:59:49.416Z,-70
2018-12-29T16:02:21.757Z,-72
2018-12-29T16:04:53.795Z,-73
2018-12-29T16:07:26.164Z,-71
2018-12-29T16:09:58.320Z,-72
2018-12-29T16:12:30.764Z,-71
2018-12-29T16:15:02.797Z,-73
2018-12-29T16:17:34.807Z,-72
2018-12-29T16:20:06.800Z,-70
2018-12-29T16:22:38.746Z,-71
2018-12-29T16:25:10.817Z,-69
2018-12-29T16:27:42.791Z,-70
2018-12-29T16:30:14.758Z,-70
2018-12-29T16:32:46.431Z,-70
2018-12-29T16:35:18.286Z,-70
2018-12-29T16:37:50.419Z,-70
2018-12-29T16:40:23.367Z,-69
2018-12-29T16:42:55.308Z,-70
2018-12-29T16:45:26.452Z,-70
2018-12-29T16:47:58.315Z,-71
2018-12-29T16:50:30.300Z,-71
2018-12-29T16:53:02.299Z,-72
2018-12-29T16:55:34.066Z,-71
2018-12-29T16:58:06.831Z,-72
2018-12-29T17:00:38.789Z,-70
2018-12-29T17:03:10.807Z,-71
2018-12-29T17:05:42.769Z,-70
2018-12-29T17:08:13.944Z,-72
2018-12-29T17:10:46.096Z,-72
2018-12-29T17:13:18.761Z,-71
2018-12-29T17:15:49.635Z,-71
2018-12-29T17:18:22.744Z,-72
2018-12-29T17:21:20.488Z,-72
2018-12-29T17:23:52.762Z,-73
2018-12-29T17:26:24.771Z,-71
2018-12-29T17:28:56.807Z,-72
2018-12-29T17:31:28.650Z,-73
2018-12-29T17:34:00.399Z,-73
2018-12-29T17:36:32.303Z,-73
2018-12-29T17:39:04.746Z,-73
2018-12-29T17:41:36.799Z,-73
2018-12-29T17:44:08.757Z,-73
2018-12-29T17:46:39.656Z,-72
2018-12-29T17:49:11.788Z,-72
2018-12-29T17:51:43.779Z,-72
2018-12-29T17:54:18.883Z,-72
2018-12-29T17:56:50.811Z,-72
2018-12-29T17:59:22.769Z,-72
2018-12-29T18:01:54.761Z,-73
2018-12-29T18:04:25.470Z,-75
2018-12-29T18:06:57.316Z,-72
2018-12-29T18:09:29.419Z,-74
2018-12-29T18:12:00.476Z,-71
2018-12-29T18:14:32.760Z,-72
2018-12-29T18:17:04.757Z,-73
2018-12-29T18:19:36.787Z,-74
2018-12-29T18:22:08.791Z,-71
2018-12-29T18:24:40.741Z,-73
2018-12-29T18:27:12.597Z,-74
2018-12-29T18:29:44.345Z,-74
2018-12-29T18:32:16.604Z,-73
2018-12-29T18:34:49.248Z,-73
2018-12-29T18:37:21.659Z,-72
2018-12-29T18:39:52.478Z,-73
2018-12-29T18:42:24.353Z,-72
2018-12-29T18:44:56.310Z,-71
2018-12-29T18:47:28.323Z,-73
2018-12-29T18:50:00.372Z,-73
2018-12-29T18:52:32.664Z,-72
2018-12-29T18:55:04.723Z,-72
2018-12-29T18:57:36.258Z,-72
2018-12-29T19:00:08.778Z,-72
2018-12-29T19:02:41.316Z,-73
2018-12-29T19:05:13.312Z,-72
2018-12-29T19:07:45.835Z,-72
2018-12-29T19:10:17.786Z,-72
2018-12-29T19:12:49.814Z,-72
2018-12-29T19:15:23.406Z,-73
2018-12-29T19:17:56.060Z,-73
2018-12-29T19:20:28.315Z,-73
2018-12-29T19:23:00.774Z,-72
2018-12-29T19:25:31.472Z,-72
2018-12-29T19:28:03.816Z,-73
2018-12-29T19:30:36.409Z,-71
2018-12-29T19:33:08.805Z,-73
2018-12-29T19:35:47.776Z,-72
2018-12-29T19:38:20.309Z,-72
2018-12-29T19:40:52.633Z,-72
2018-12-29T19:43:24.806Z,-70
2018-12-29T19:45:56.850Z,-72
2018-12-29T19:48:28.834Z,-72
2018-12-29T19:51:30.496Z,-72
2018-12-29T19:54:02.306Z,-73
2018-12-29T19:56:34.061Z,-73
2018-12-29T19:59:06.312Z,-72
2018-12-29T20:01:38.329Z,-73
2018-12-29T20:04:09.589Z,-72
2018-12-29T20:06:41.795Z,-72
2018-12-29T20:09:14.305Z,-71
2018-12-29T20:11:46.013Z,-74
2018-12-29T20:14:18.307Z,-72
2018-12-29T20:16:50.865Z,-73
2018-12-29T20:19:23.140Z,-73
2018-12-29T20:21:54.795Z,-73
2018-12-29T20:24:27.314Z,-73
2018-12-29T20:26:59.425Z,-71
2018-12-29T20:29:31.414Z,-73
2018-12-29T20:32:03.022Z,-71
2018-12-29T20:34:36.087Z,-71
2018-12-29T20:37:07.814Z,-73
2018-12-29T20:39:39.919Z,-72
2018-12-29T20:42:11.819Z,-72
2018-12-29T20:44:44.703Z,-72
2018-12-29T20:47:17.044Z,-72
2018-12-29T20:49:49.301Z,-71
2018-12-29T20:52:21.058Z,-73
2018-12-29T20:54:53.050Z,-73
2018-12-29T20:57:25.323Z,-72
2018-12-29T20:59:57.297Z,-71
2018-12-29T21:02:29.397Z,-73
2018-12-29T21:05:01.613Z,-73
2018-12-29T21:07:33.780Z,-72
2018-12-29T21:10:05.762Z,-72
2018-12-29T21:12:37.737Z,-72
2018-12-29T21:15:09.687Z,-72
2018-12-29T21:17:41.749Z,-73
2018-12-29T21:20:17.237Z,-72
2018-12-29T21:22:47.309Z,-71
2018-12-29T21:25:20.198Z,-70
2018-12-29T21:27:52.290Z,-70
2018-12-29T21:30:24.301Z,-72
2018-12-29T21:32:56.260Z,-72
2018-12-29T21:35:28.134Z,-73
2018-12-29T21:37:59.995Z,-72
2018-12-29T21:40:32.297Z,-71
2018-12-29T21:43:04.025Z,-72
2018-12-29T21:45:36.305Z,-72
2018-12-29T21:48:08.274Z,-73
2018-12-29T21:50:40.427Z,-70
2018-12-29T21:53:12.589Z,-73
2018-12-29T21:55:44.843Z,-73
2018-12-29T21:58:16.783Z,-72
2018-12-29T22:00:48.810Z,-70
2018-12-29T22:03:21.311Z,-72
2018-12-29T22:05:53.825Z,-72
2018-12-29T22:08:25.792Z,-71
2018-12-29T22:10:57.836Z,-72
2018-12-29T22:13:29.792Z,-72
2018-12-29T22:16:02.068Z,-72
2018-12-29T22:18:34.436Z,-72
2018-12-29T22:21:06.801Z,-72
2018-12-29T22:23:39.277Z,-72
2018-12-29T22:26:11.375Z,-73
2018-12-29T22:28:43.813Z,-72
2018-12-29T22:31:15.805Z,-72
2018-12-29T22:33:48.371Z,-72
2018-12-29T22:36:20.755Z,-72
2018-12-29T22:38:52.798Z,-72
2018-12-29T22:41:24.832Z,-72
2018-12-29T22:43:56.894Z,-72
2018-12-29T22:46:28.797Z,-72
2018-12-29T22:49:03.299Z,-72
2018-12-29T22:51:35.550Z,-72
2018-12-29T22:54:07.733Z,-72
2018-12-29T22:56:38.639Z,-72
2018-12-29T22:59:10.791Z,-72
2018-12-29T23:01:43.307Z,-73
2018-12-29T23:04:15.808Z,-70
2018-12-29T23:06:48.796Z,-72
2018-12-29T23:09:21.266Z,-74
2018-12-29T23:11:53.469Z,-73
2018-12-29T23:14:25.810Z,-73
2018-12-29T23:16:58.315Z,-72
2018-12-29T23:19:30.784Z,-71
2018-12-29T23:22:03.309Z,-73
2018-12-29T23:24:35.677Z,-72
2018-12-29T23:27:06.653Z,-73
2018-12-29T23:29:37.624Z,-72
2018-12-29T23:32:08.669Z,-72
2018-12-29T23:34:40.771Z,-74
2018-12-29T23:37:12.827Z,-72
2018-12-29T23:39:44.795Z,-69
2018-12-29T23:42:17.440Z,-72
2018-12-29T23:44:50.304Z,-72
2018-12-29T23:47:22.808Z,-73
2018-12-29T23:49:55.295Z,-71
2018-12-29T23:52:27.866Z,-72
2018-12-29T23:55:00.157Z,-72
2018-12-29T23:57:32.413Z,-72
